createdAt,value
2018-06-01T00:00:29.595Z,64.55
2018-06-01T00:02:57.469Z,64.61
2018-06-01T00:05:25.238Z,64.42
2018-06-01T00:07:53.616Z,64.14
2018-06-01T00:10:21.191Z,63.82
2018-06-01T00:12:50.367Z,63.41
2018-06-01T00:15:17.971Z,63.08
2018-06-01T00:17:46.115Z,62.84
2018-06-01T00:20:13.713Z,62.31
2018-06-01T00:23:05.032Z,62.51
2018-06-01T00:25:32.655Z,62.69
2018-06-01T00:28:00.223Z,62.98
2018-06-01T00:30:29.767Z,63.26
2018-06-01T00:32:57.489Z,63.13
2018-06-01T00:35:25.129Z,62.93
2018-06-01T00:37:52.892Z,62.67
2018-06-01T00:40:20.376Z,62.54
2018-06-01T00:42:48.615Z,62.25
2018-06-01T00:45:16.805Z,62.52
2018-06-01T00:47:45.087Z,62.64
2018-06-01T00:50:12.625Z,62.84
2018-06-01T00:52:40.097Z,62.83
2018-06-01T00:55:19.543Z,62.99
2018-06-01T00:57:47.047Z,62.83
2018-06-01T01:00:14.517Z,62.91
2018-06-01T01:02:41.985Z,62.87
2018-06-01T01:05:09.445Z,62.83
2018-06-01T01:07:36.990Z,62.66
2018-06-01T01:10:04.445Z,62.99
2018-06-01T01:12:31.927Z,62.89
2018-06-01T01:14:59.416Z,62.96
2018-06-01T01:17:26.859Z,62.85
2018-06-01T01:19:54.317Z,63.20
2018-06-01T01:22:22.269Z,63.41
2018-06-01T01:24:49.703Z,64.15
2018-06-01T01:27:17.205Z,64.10
2018-06-01T01:29:46.382Z,64.89
2018-06-01T01:32:14.858Z,65.61
2018-06-01T01:34:42.600Z,66.29
2018-06-01T01:37:10.056Z,66.84
2018-06-01T01:39:37.684Z,67.57
2018-06-01T01:42:05.381Z,68.04
2018-06-01T01:44:33.044Z,68.43
2018-06-01T01:47:00.602Z,68.86
2018-06-01T01:49:28.264Z,69.35
2018-06-01T01:51:55.724Z,69.67
2018-06-01T01:54:23.587Z,70.05
2018-06-01T01:56:51.061Z,70.41
2018-06-01T01:59:18.750Z,70.78
2018-06-01T02:01:47.033Z,70.87
2018-06-01T02:04:15.005Z,70.96
2018-06-01T02:06:42.544Z,71.16
2018-06-01T02:09:10.325Z,71.31
2018-06-01T02:11:37.866Z,71.33
2018-06-01T02:14:05.315Z,71.34
2018-06-01T02:16:32.815Z,71.47
2018-06-01T02:19:00.242Z,71.14
2018-06-01T02:21:27.713Z,71.12
2018-06-01T02:23:55.591Z,70.88
2018-06-01T02:26:23.663Z,70.71
2018-06-01T02:28:51.271Z,70.71
2018-06-01T02:31:18.923Z,71.03
2018-06-01T02:34:10.063Z,71.10
2018-06-01T02:36:41.123Z,71.33
2018-06-01T02:39:08.818Z,71.53
2018-06-01T02:41:36.858Z,71.48
2018-06-01T02:44:04.501Z,71.30
2018-06-01T02:46:32.755Z,71.60
2018-06-01T02:49:00.414Z,71.70
2018-06-01T02:51:27.921Z,71.69
2018-06-01T02:53:55.463Z,71.88
2018-06-01T02:56:23.015Z,72.21
2018-06-01T02:58:50.492Z,72.35
2018-06-01T03:01:17.966Z,72.64
2018-06-01T03:03:45.506Z,73.10
2018-06-01T03:06:13.967Z,73.35
2018-06-01T03:08:41.417Z,73.41
2018-06-01T03:11:08.927Z,73.26
2018-06-01T03:13:46.265Z,73.03
2018-06-01T03:16:13.760Z,72.79
2018-06-01T03:18:41.223Z,72.47
2018-06-01T03:21:08.672Z,72.29
2018-06-01T03:23:37.155Z,72.34
2018-06-01T03:26:04.694Z,72.23
2018-06-01T03:28:32.151Z,72.69
2018-06-01T03:31:00.247Z,73.09
2018-06-01T03:33:28.021Z,73.60
2018-06-01T03:35:57.083Z,74.01
2018-06-01T03:38:24.535Z,74.31
2018-06-01T03:40:52.391Z,74.48
2018-06-01T03:43:39.903Z,74.53
2018-06-01T03:46:07.363Z,74.60
2018-06-01T03:48:35.129Z,74.94
2018-06-01T03:51:02.611Z,75.22
2018-06-01T03:53:30.095Z,74.99
2018-06-01T03:55:58.621Z,74.93
2018-06-01T03:58:27.431Z,75.15
2018-06-01T04:00:54.919Z,75.20
2018-06-01T04:03:22.449Z,75.17
2018-06-01T04:05:51.267Z,75.00
2018-06-01T04:08:18.961Z,74.66
2018-06-01T04:10:47.267Z,74.55
2018-06-01T04:13:15.991Z,74.20
2018-06-01T04:15:44.403Z,73.81
2018-06-01T04:18:11.883Z,74.01
2018-06-01T04:20:40.116Z,73.90
2018-06-01T04:26:00.772Z,74.32
2018-06-01T04:28:29.422Z,74.34
2018-06-01T04:30:59.263Z,74.45
2018-06-01T04:33:28.232Z,74.76
2018-06-01T04:35:56.116Z,75.00
2018-06-01T04:38:26.410Z,75.13
2018-06-01T04:40:53.962Z,75.36
2018-06-01T04:43:21.418Z,75.31
2018-06-01T04:45:49.326Z,75.12
2018-06-01T04:48:16.810Z,75.17
2018-06-01T04:50:44.394Z,74.95
2018-06-01T04:53:16.839Z,74.34
2018-06-01T04:55:44.279Z,73.64
2018-06-01T04:58:12.522Z,73.17
2018-06-01T05:00:39.979Z,72.91
2018-06-01T05:03:07.440Z,72.17
2018-06-01T05:05:34.895Z,71.60
2018-06-01T05:08:02.499Z,71.60
2018-06-01T05:10:29.961Z,70.97
2018-06-01T05:12:57.411Z,70.74
2018-06-01T05:15:24.876Z,70.60
2018-06-01T05:17:52.352Z,70.18
2018-06-01T05:20:20.006Z,69.73
2018-06-01T05:22:47.459Z,69.48
2018-06-01T05:25:14.911Z,69.30
2018-06-01T05:27:42.400Z,69.18
2018-06-01T05:30:12.686Z,69.22
2018-06-01T05:32:40.187Z,69.17
2018-06-01T05:35:07.649Z,69.21
2018-06-01T05:37:35.181Z,69.26
2018-06-01T05:40:02.980Z,69.28
2018-06-01T05:42:30.445Z,69.30
2018-06-01T05:44:57.881Z,69.29
2018-06-01T05:47:25.381Z,69.08
2018-06-01T05:49:52.828Z,69.06
2018-06-01T05:52:20.359Z,68.78
2018-06-01T05:54:47.811Z,68.89
2018-06-01T05:57:15.295Z,68.74
2018-06-01T05:59:42.895Z,68.53
2018-06-01T06:02:10.365Z,68.84
2018-06-01T06:04:37.896Z,68.82
2018-06-01T06:07:05.361Z,68.25
2018-06-01T06:09:32.827Z,68.05
2018-06-01T06:12:00.287Z,67.53
2018-06-01T06:14:27.743Z,67.16
2018-06-01T06:16:55.199Z,66.52
2018-06-01T06:19:22.656Z,66.55
2018-06-01T06:21:50.134Z,66.46
2018-06-01T06:24:17.603Z,66.01
2018-06-01T06:26:45.061Z,66.03
2018-06-01T06:29:12.516Z,66.19
2018-06-01T06:31:39.951Z,65.94
2018-06-01T06:34:07.469Z,65.45
2018-06-01T06:36:34.946Z,65.60
2018-06-01T06:39:02.407Z,65.46
2018-06-01T06:41:29.893Z,65.61
2018-06-01T06:43:58.281Z,65.26
2018-06-01T06:46:25.733Z,65.45
2018-06-01T06:48:53.187Z,65.59
2018-06-01T06:51:20.625Z,66.47
2018-06-01T06:53:48.071Z,67.20
2018-06-01T06:56:15.603Z,67.08
2018-06-01T06:58:43.686Z,67.23
2018-06-01T07:01:12.005Z,67.28
2018-06-01T07:03:39.611Z,67.51
2018-06-01T07:06:07.157Z,67.52
2018-06-01T07:08:34.655Z,67.52
2018-06-01T07:11:02.248Z,67.50
2018-06-01T07:13:29.747Z,67.34
2018-06-01T07:15:57.202Z,67.12
2018-06-01T07:18:24.691Z,66.79
2018-06-01T07:20:52.159Z,66.89
2018-06-01T07:23:19.638Z,66.42
2018-06-01T07:25:47.115Z,66.47
2018-06-01T07:28:14.577Z,66.12
2018-06-01T07:30:42.080Z,65.40
2018-06-01T07:33:09.566Z,64.57
2018-06-01T07:35:37.117Z,63.76
2018-06-01T07:38:04.647Z,63.85
2018-06-01T07:40:33.094Z,64.14
2018-06-01T07:43:05.457Z,64.03
2018-06-01T07:45:32.937Z,64.03
2018-06-01T07:48:01.320Z,63.10
2018-06-01T07:50:28.827Z,62.57
2018-06-01T07:52:56.287Z,62.71
2018-06-01T07:55:23.749Z,62.43
2018-06-01T07:57:51.238Z,61.97
2018-06-01T08:00:18.787Z,62.07
2018-06-01T08:02:46.265Z,61.25
2018-06-01T08:05:13.746Z,60.79
2018-06-01T08:07:41.207Z,61.18
2018-06-01T08:10:08.693Z,61.07
2018-06-01T08:12:36.159Z,60.71
2018-06-01T08:15:03.652Z,60.99
2018-06-01T08:17:31.127Z,61.21
2018-06-01T08:19:58.850Z,61.45
2018-06-01T08:22:26.318Z,61.85
2018-06-01T08:24:53.776Z,61.49
2018-06-01T08:27:22.196Z,61.68
2018-06-01T08:29:49.684Z,62.33
2018-06-01T08:32:17.175Z,61.91
2018-06-01T08:34:44.650Z,61.69
2018-06-01T08:37:12.337Z,61.30
2018-06-01T08:39:42.787Z,61.45
2018-06-01T08:42:10.549Z,61.60
2018-06-01T08:44:38.823Z,61.59
2018-06-01T08:47:06.284Z,61.83
2018-06-01T08:49:33.767Z,61.54
2018-06-01T08:52:01.207Z,61.71
2018-06-01T08:54:33.792Z,61.70
2018-06-01T08:57:01.251Z,61.76
2018-06-01T08:59:28.705Z,61.42
2018-06-01T09:01:56.228Z,61.11
2018-06-01T09:04:33.462Z,61.10
2018-06-01T09:07:00.897Z,60.44
2018-06-01T09:12:18.554Z,60.88
2018-06-01T09:14:46.015Z,60.99
2018-06-01T09:17:13.463Z,61.24
2018-06-01T09:19:40.912Z,60.14
2018-06-01T09:24:41.346Z,60.56
2018-06-01T09:27:08.813Z,61.08
2018-06-01T09:29:36.262Z,60.96
2018-06-01T09:32:03.753Z,60.87
2018-06-01T09:34:31.281Z,61.32
2018-06-01T09:36:58.667Z,61.34
2018-06-01T09:39:26.134Z,61.50
2018-06-01T09:41:53.574Z,61.55
2018-06-01T09:44:21.866Z,61.00
2018-06-01T09:46:49.496Z,61.06
2018-06-01T09:49:17.000Z,60.93
2018-06-01T09:51:44.491Z,60.70
2018-06-01T09:54:12.582Z,60.83
2018-06-01T09:56:40.349Z,61.05
2018-06-01T09:59:07.792Z,60.98
2018-06-01T10:01:35.284Z,61.47
2018-06-01T10:04:02.760Z,61.26
2018-06-01T10:06:30.198Z,61.08
2018-06-01T10:08:57.655Z,61.34
2018-06-01T10:11:25.088Z,60.80
2018-06-01T10:13:52.546Z,60.77
2018-06-01T10:16:20.001Z,61.16
2018-06-01T10:18:47.439Z,60.77
2018-06-01T10:21:14.938Z,60.39
2018-06-01T10:23:42.397Z,59.54
2018-06-01T10:26:10.360Z,59.72
2018-06-01T10:28:37.806Z,58.85
2018-06-01T10:31:05.284Z,57.52
2018-06-01T10:33:34.469Z,58.16
2018-06-01T10:36:02.205Z,57.26
2018-06-01T10:38:29.702Z,57.60
2018-06-01T10:40:58.179Z,57.52
2018-06-01T10:43:25.736Z,57.35
2018-06-01T10:45:53.237Z,57.01
2018-06-01T10:48:20.713Z,56.74
2018-06-01T10:50:50.004Z,56.14
2018-06-01T10:53:18.172Z,56.21
2018-06-01T10:55:45.718Z,56.60
2018-06-01T10:58:13.180Z,56.47
2018-06-01T11:00:40.938Z,56.22
2018-06-01T11:03:08.498Z,56.07
2018-06-01T11:05:35.987Z,55.68
2018-06-01T11:08:04.365Z,54.74
2018-06-01T11:10:31.964Z,55.18
2018-06-01T11:12:59.503Z,54.22
2018-06-01T11:15:26.986Z,53.80
2018-06-01T11:17:54.536Z,53.74
2018-06-01T11:20:22.059Z,52.16
2018-06-01T11:22:49.524Z,51.94
2018-06-01T11:25:17.012Z,51.13
2018-06-01T11:27:44.466Z,49.28
2018-06-01T11:30:11.924Z,49.81
2018-06-01T11:32:39.442Z,49.57
2018-06-01T11:35:07.108Z,49.71
2018-06-01T11:37:34.586Z,48.37
2018-06-01T11:40:02.181Z,46.26
2018-06-01T11:42:29.680Z,45.52
2018-06-01T11:44:57.966Z,45.38
2018-06-01T11:47:25.592Z,45.01
2018-06-01T11:49:53.141Z,43.27
2018-06-01T11:52:20.620Z,43.33
2018-06-01T11:54:48.056Z,42.58
2018-06-01T11:57:15.588Z,42.42
2018-06-01T11:59:43.016Z,42.00
2018-06-01T12:02:10.469Z,41.87
2018-06-01T12:04:38.137Z,41.61
2018-06-01T12:07:06.409Z,42.58
2018-06-01T12:09:33.969Z,43.26
2018-06-01T12:12:01.433Z,42.15
2018-06-01T12:14:28.945Z,42.39
2018-06-01T12:16:56.386Z,41.78
2018-06-01T12:19:23.883Z,41.79
2018-06-01T12:21:51.429Z,42.01
2018-06-01T12:24:18.908Z,41.28
2018-06-01T12:26:46.376Z,41.17
2018-06-01T12:29:14.245Z,41.29
2018-06-01T12:31:41.720Z,41.43
2018-06-01T12:34:09.428Z,42.78
2018-06-01T12:36:36.923Z,42.95
2018-06-01T12:39:05.222Z,43.23
2018-06-01T12:41:32.730Z,44.90
2018-06-01T12:44:00.184Z,46.44
2018-06-01T12:46:27.673Z,47.40
2018-06-01T12:48:55.202Z,47.21
2018-06-01T12:51:22.758Z,46.88
2018-06-01T12:53:50.232Z,46.39
2018-06-01T12:56:17.689Z,47.04
2018-06-01T12:58:45.218Z,46.41
2018-06-01T13:01:13.608Z,46.38
2018-06-01T13:03:41.683Z,46.06
2018-06-01T13:06:09.158Z,46.10
2018-06-01T13:08:36.598Z,47.23
2018-06-01T13:11:04.072Z,48.03
2018-06-01T13:13:31.532Z,48.59
2018-06-01T13:15:59.008Z,48.75
2018-06-01T13:18:26.467Z,48.16
2018-06-01T13:20:53.944Z,47.17
2018-06-01T13:23:21.408Z,47.89
2018-06-01T13:25:48.857Z,48.25
2018-06-01T13:28:16.324Z,48.35
2018-06-01T13:30:44.128Z,47.47
2018-06-01T13:33:11.584Z,47.05
2018-06-01T13:35:39.092Z,47.12
2018-06-01T13:38:06.560Z,46.84
2018-06-01T13:40:34.004Z,45.65
2018-06-01T13:43:01.504Z,44.53
2018-06-01T13:45:28.997Z,43.88
2018-06-01T13:47:56.454Z,44.55
2018-06-01T13:50:23.916Z,44.14
2018-06-01T13:52:51.353Z,44.53
2018-06-01T13:55:18.828Z,44.03
2018-06-01T13:57:46.293Z,44.21
2018-06-01T14:00:13.963Z,43.96
2018-06-01T14:02:41.590Z,44.30
2018-06-01T14:05:09.107Z,44.24
2018-06-01T14:07:36.599Z,44.76
2018-06-01T14:10:04.080Z,44.38
2018-06-01T14:12:31.519Z,44.71
2018-06-01T14:14:59.001Z,44.73
2018-06-01T14:17:26.480Z,44.60
2018-06-01T14:19:54.004Z,44.67
2018-06-01T14:22:21.610Z,44.57
2018-06-01T14:24:49.100Z,45.00
2018-06-01T14:27:16.572Z,45.55
2018-06-01T14:29:44.848Z,45.44
2018-06-01T14:32:12.324Z,44.21
2018-06-01T14:34:39.798Z,44.40
2018-06-01T14:37:07.268Z,44.57
2018-06-01T14:39:34.822Z,44.13
2018-06-01T14:42:02.355Z,44.77
2018-06-01T14:44:29.860Z,45.20
2018-06-01T14:46:57.389Z,45.05
2018-06-01T14:49:25.431Z,45.06
2018-06-01T14:52:10.785Z,45.10
2018-06-01T14:54:38.281Z,45.31
2018-06-01T14:57:05.742Z,45.26
2018-06-01T14:59:33.193Z,47.08
2018-06-01T15:02:00.664Z,47.66
2018-06-01T15:04:28.141Z,47.52
2018-06-01T15:06:55.585Z,48.28
2018-06-01T15:09:23.071Z,48.76
2018-06-01T15:11:50.548Z,48.54
2018-06-01T15:14:18.055Z,48.87
2018-06-01T15:16:45.548Z,48.73
2018-06-01T15:19:12.977Z,49.27
2018-06-01T15:21:40.688Z,49.80
2018-06-01T15:24:08.394Z,50.42
2018-06-01T15:26:35.877Z,51.54
2018-06-01T15:29:03.356Z,52.13
2018-06-01T15:31:30.893Z,52.43
2018-06-01T15:33:58.434Z,53.11
2018-06-01T15:36:25.898Z,53.28
2018-06-01T15:38:53.368Z,54.04
2018-06-01T15:41:21.101Z,55.43
2018-06-01T15:43:48.605Z,56.63
2018-06-01T15:46:16.083Z,58.38
2018-06-01T15:48:43.555Z,61.09
2018-06-01T15:51:11.001Z,65.72
2018-06-01T15:53:38.652Z,65.88
2018-06-01T15:56:06.130Z,67.14
2018-06-01T15:58:33.920Z,67.96
2018-06-01T16:01:01.387Z,68.40
2018-06-01T16:03:28.835Z,67.74
2018-06-01T16:05:56.296Z,68.96
2018-06-01T16:08:23.795Z,69.96
2018-06-01T16:10:51.255Z,69.33
2018-06-01T16:13:18.715Z,70.09
2018-06-01T16:15:46.268Z,69.99
2018-06-01T16:18:13.795Z,69.42
2018-06-01T16:20:41.248Z,70.17
2018-06-01T16:23:13.673Z,69.79
2018-06-01T16:25:41.183Z,70.51
2018-06-01T16:28:08.644Z,70.56
2018-06-01T16:30:36.308Z,70.59
2018-06-01T16:33:03.907Z,70.68
2018-06-01T16:35:31.578Z,70.19
2018-06-01T16:38:00.095Z,70.03
2018-06-01T16:40:27.575Z,69.84
2018-06-01T16:42:55.031Z,69.54
2018-06-01T16:45:22.502Z,69.70
2018-06-01T16:47:50.100Z,68.42
2018-06-01T16:50:17.611Z,68.32
2018-06-01T16:52:45.085Z,68.71
2018-06-01T16:55:13.647Z,67.51
2018-06-01T16:57:41.180Z,68.52
2018-06-01T17:00:08.683Z,69.25
2018-06-01T17:02:36.586Z,68.46
2018-06-01T17:05:04.070Z,68.20
2018-06-01T17:07:31.658Z,68.60
2018-06-01T17:09:59.140Z,68.66
2018-06-01T17:12:26.599Z,68.32
2018-06-01T17:14:54.149Z,68.44
2018-06-01T17:17:21.671Z,68.68
2018-06-01T17:19:49.113Z,68.59
2018-06-01T17:22:17.023Z,68.86
2018-06-01T17:24:44.479Z,68.62
2018-06-01T17:27:11.952Z,68.81
2018-06-01T17:29:39.401Z,69.32
2018-06-01T17:32:06.872Z,69.09
2018-06-01T17:34:34.323Z,69.25
2018-06-01T17:37:01.755Z,69.44
2018-06-01T17:39:29.199Z,69.82
2018-06-01T17:41:56.679Z,70.02
2018-06-01T17:44:24.155Z,70.04
2018-06-01T17:46:51.653Z,69.92
2018-06-01T17:49:19.791Z,69.81
2018-06-01T17:51:47.279Z,70.21
2018-06-01T17:54:14.785Z,70.70
2018-06-01T17:56:42.271Z,71.07
2018-06-01T17:59:09.759Z,70.92
2018-06-01T18:01:37.253Z,71.04
2018-06-01T18:04:04.780Z,71.43
2018-06-01T18:06:32.300Z,71.50
2018-06-01T18:08:59.795Z,71.26
2018-06-01T18:11:27.283Z,71.37
2018-06-01T18:13:55.152Z,71.46
2018-06-01T18:16:22.623Z,71.65
2018-06-01T18:18:50.092Z,71.97
2018-06-01T18:21:17.593Z,72.53
2018-06-01T18:23:45.251Z,72.41
2018-06-01T18:26:13.643Z,71.31
2018-06-01T18:28:41.155Z,72.27
2018-06-01T18:31:09.591Z,72.65
2018-06-01T18:33:37.090Z,72.97
2018-06-01T18:36:04.725Z,73.20
2018-06-01T18:38:32.315Z,73.50
2018-06-01T18:40:59.862Z,73.25
2018-06-01T18:43:27.415Z,73.38
2018-06-01T18:45:54.917Z,72.15
2018-06-01T18:48:22.413Z,72.18
2018-06-01T18:50:50.023Z,72.59
2018-06-01T18:53:17.563Z,72.97
2018-06-01T18:55:45.149Z,73.40
2018-06-01T18:58:12.721Z,73.60
2018-06-01T19:00:41.114Z,73.90
2018-06-01T19:03:08.648Z,74.16
2018-06-01T19:05:36.188Z,74.09
2018-06-01T19:08:04.146Z,74.13
2018-06-01T19:10:31.704Z,73.55
2018-06-01T19:12:59.254Z,73.59
2018-06-01T19:15:26.765Z,73.93
2018-06-01T19:17:54.289Z,74.00
2018-06-01T19:20:21.907Z,74.49
2018-06-01T19:22:49.354Z,74.80
2018-06-01T19:25:16.856Z,74.85
2018-06-01T19:27:45.459Z,74.43
2018-06-01T19:30:13.113Z,74.26
2018-06-01T19:32:40.629Z,74.22
2018-06-01T19:35:08.259Z,74.18
2018-06-01T19:37:36.375Z,74.12
2018-06-01T19:40:04.087Z,74.30
2018-06-01T19:42:33.255Z,74.28
2018-06-01T19:45:00.837Z,74.61
2018-06-01T19:47:28.364Z,74.25
2018-06-01T19:49:55.912Z,74.24
2018-06-01T19:52:23.452Z,74.21
2018-06-01T19:54:51.183Z,73.87
2018-06-01T19:57:19.913Z,74.21
2018-06-01T19:59:47.598Z,74.48
2018-06-01T20:02:16.095Z,74.00
2018-06-01T20:04:45.892Z,74.36
2018-06-01T20:07:13.589Z,74.30
2018-06-01T20:09:41.193Z,73.91
2018-06-01T20:12:10.025Z,73.98
2018-06-01T20:14:38.540Z,74.23
2018-06-01T20:17:06.736Z,74.76
2018-06-01T20:19:34.255Z,75.18
2018-06-01T20:22:01.864Z,75.24
2018-06-01T20:24:29.592Z,75.54
2018-06-01T20:26:57.121Z,75.72
2018-06-01T20:29:25.441Z,76.01
2018-06-01T20:31:53.297Z,76.10
2018-06-01T20:34:20.822Z,76.24
2018-06-01T20:36:48.823Z,77.13
2018-06-01T20:39:16.588Z,76.85
2018-06-01T20:41:44.259Z,76.76
2018-06-01T20:44:11.255Z,76.40
2018-06-01T20:46:39.089Z,76.29
2018-06-01T20:49:06.756Z,75.93
2018-06-01T20:51:34.477Z,76.08
2018-06-01T20:54:03.181Z,75.56
2018-06-01T20:56:30.975Z,76.00
2018-06-01T20:58:58.553Z,76.20
2018-06-01T21:01:26.309Z,76.51
2018-06-01T21:03:53.897Z,76.37
2018-06-01T21:06:22.443Z,76.07
2018-06-01T21:08:50.645Z,76.66
2018-06-01T21:11:18.159Z,76.39
2018-06-01T21:13:45.983Z,75.93
2018-06-01T21:16:13.773Z,76.05
2018-06-01T21:18:41.325Z,75.98
2018-06-01T21:21:09.576Z,75.81
2018-06-01T21:23:37.230Z,75.46
2018-06-01T21:26:04.839Z,75.06
2018-06-01T21:28:33.470Z,74.29
2018-06-01T21:31:01.077Z,74.17
2018-06-01T21:33:28.755Z,74.31
2018-06-01T21:35:57.216Z,74.10
2018-06-01T21:38:28.595Z,74.02
2018-06-01T21:40:57.333Z,73.61
2018-06-01T21:43:25.029Z,73.94
2018-06-01T21:45:52.507Z,73.95
2018-06-01T21:48:20.242Z,74.32
2018-06-01T21:50:47.786Z,74.25
2018-06-01T21:53:15.468Z,74.86
2018-06-01T21:55:43.011Z,74.92
2018-06-01T21:58:10.747Z,74.14
2018-06-01T22:00:38.330Z,74.58
2018-06-01T22:03:06.008Z,74.32
2018-06-01T22:05:33.501Z,74.27
2018-06-01T22:08:01.038Z,74.09
2018-06-01T22:10:28.514Z,73.67
2018-06-01T22:12:55.982Z,74.08
2018-06-01T22:15:23.857Z,73.94
2018-06-01T22:17:51.265Z,73.69
2018-06-01T22:20:18.942Z,73.54
2018-06-01T22:22:46.431Z,73.62
2018-06-01T22:25:14.706Z,72.65
2018-06-01T22:27:42.420Z,72.95
2018-06-01T22:30:10.017Z,72.35
2018-06-01T22:32:37.642Z,72.45
2018-06-01T22:35:05.177Z,72.53
2018-06-01T22:37:33.478Z,73.15
2018-06-01T22:40:01.020Z,72.91
2018-06-01T22:42:28.482Z,72.86
2018-06-01T22:44:56.026Z,73.68
2018-06-01T22:47:23.801Z,72.68
2018-06-01T22:49:52.401Z,73.12
2018-06-01T22:52:20.042Z,73.24
2018-06-01T22:54:47.563Z,72.36
2018-06-01T22:57:15.240Z,72.48
2018-06-01T22:59:42.761Z,72.45
2018-06-01T23:02:10.458Z,72.59
2018-06-01T23:04:38.030Z,72.04
2018-06-01T23:07:05.603Z,71.73
2018-06-01T23:09:33.060Z,71.56
2018-06-01T23:12:02.408Z,71.55
2018-06-01T23:14:29.985Z,71.53
2018-06-01T23:16:57.547Z,71.75
2018-06-01T23:19:25.011Z,72.15
2018-06-01T23:21:52.493Z,72.37
2018-06-01T23:24:19.939Z,72.23
2018-06-01T23:26:47.479Z,72.13
2018-06-01T23:29:15.159Z,72.23
2018-06-01T23:31:44.031Z,72.17
2018-06-01T23:34:21.216Z,72.63
2018-06-01T23:36:48.710Z,72.83
2018-06-01T23:39:16.156Z,72.62
2018-06-01T23:41:45.687Z,72.75
2018-06-01T23:44:14.331Z,72.97
2018-06-01T23:46:41.786Z,72.93
2018-06-01T23:49:09.227Z,73.51
2018-06-01T23:51:36.667Z,73.43
2018-06-01T23:54:04.195Z,73.54
2018-06-01T23:56:31.631Z,72.49
2018-06-01T23:58:59.349Z,72.44
